Time;durP1;ratioP1;P1;durP2;ratioP2;P2;SDS_P1;SDS_P2;PMS_P1;PMS_P2;Temp;Humidity;BMP_temperature;BMP_pressure;BME280_temperature;BME280_humidity;BME280_pressure;Samples;Min_cycle;Max_cycle;Signal;HPM_P1;HPM_P2
2020/12/25 00:00:20;;;;;;;0.47;0.30;;;16.40;67.00;;;;;;5025513;28;20076;-76
2020/12/25 00:03:02;;;;;;;0.30;0.20;;;16.40;66.90;;;;;;5022446;28;20030;-76
2020/12/25 00:05:30;;;;;;;0.40;0.40;;;16.40;67.00;;;;;;5024186;28;20136;-76
2020/12/25 00:07:58;;;;;;;0.20;0.20;;;16.40;67.00;;;;;;5013464;28;20053;-76
2020/12/25 00:10:24;;;;;;;;;;;16.40;67.00;;;;;;5030334;28;20029;-76
2020/12/25 00:12:49;;;;;;;0.50;0.47;;;16.40;67.00;;;;;;5032656;28;19932;-76
2020/12/25 00:15:20;;;;;;;0.40;0.28;;;16.40;67.00;;;;;;5032524;28;20037;-76
2020/12/25 00:17:50;;;;;;;0.43;0.30;;;16.40;67.00;;;;;;5013830;28;20034;-76
2020/12/25 00:20:16;;;;;;;0.30;0.25;;;16.40;67.00;;;;;;5010361;28;20464;-75
2020/12/25 00:22:42;;;;;;;0.30;0.22;;;16.40;67.00;;;;;;5030126;28;20116;-76
2020/12/25 00:25:07;;;;;;;0.40;0.40;;;16.40;67.00;;;;;;5020797;28;20033;-76
2020/12/25 00:27:38;;;;;;;0.60;0.40;;;16.40;67.00;;;;;;5016116;28;20471;-76
2020/12/25 00:30:04;;;;;;;0.47;0.40;;;16.40;67.00;;;;;;5028058;28;20053;-75
2020/12/25 00:32:35;;;;;;;0.20;0.20;;;16.40;67.00;;;;;;5032308;28;20087;-76
2020/12/25 00:35:05;;;;;;;0.32;0.30;;;16.40;67.00;;;;;;5029929;28;20452;-76
2020/12/25 00:37:33;;;;;;;0.30;0.20;;;16.40;67.00;;;;;;5025104;28;20022;-76
2020/12/25 00:40:04;;;;;;;0.88;0.47;;;16.40;67.00;;;;;;5027078;28;20468;-76
2020/12/25 00:42:34;;;;;;;0.30;0.25;;;16.40;67.00;;;;;;5033076;28;20093;-78
2020/12/25 00:45:04;;;;;;;0.40;0.40;;;16.40;67.00;;;;;;5033376;28;20022;-76
2020/12/25 00:47:30;;;;;;;0.20;0.20;;;16.40;67.00;;;;;;5010151;28;20028;-77
2020/12/25 00:50:01;;;;;;;0.35;0.32;;;16.40;67.00;;;;;;5030592;28;20025;-76
2020/12/25 00:52:37;;;;;;;0.52;0.40;;;16.40;67.00;;;;;;5012235;28;20022;-75
2020/12/25 00:55:06;;;;;;;0.30;0.30;;;16.40;67.00;;;;;;5009575;28;20022;-77
2020/12/25 00:57:36;;;;;;;0.30;0.30;;;16.40;67.00;;;;;;5010045;28;20028;-76
2020/12/25 01:00:05;;;;;;;0.20;0.20;;;16.40;67.00;;;;;;5032255;28;20045;-76
2020/12/25 01:02:31;;;;;;;0.30;0.30;;;16.40;67.00;;;;;;5016385;28;20466;-75
2020/12/25 01:05:02;;;;;;;0.40;0.35;;;16.40;67.00;;;;;;5026891;28;20037;-76
2020/12/25 01:07:31;;;;;;;0.55;0.50;;;16.40;67.00;;;;;;5013696;28;20033;-76
2020/12/25 01:09:59;;;;;;;0.30;0.30;;;16.40;67.00;;;;;;5014437;28;20021;-76
2020/12/25 01:12:25;;;;;;;0.30;0.30;;;16.40;67.00;;;;;;5024394;28;20026;-77
2020/12/25 01:14:55;;;;;;;0.40;0.40;;;16.40;67.00;;;;;;5026866;28;20095;-75
2020/12/25 01:17:29;;;;;;;0.43;0.35;;;16.40;67.00;;;;;;5031232;28;20084;-75
2020/12/25 01:19:59;;;;;;;0.30;0.30;;;16.30;67.00;;;;;;5011205;28;20026;-76
2020/12/25 01:22:30;;;;;;;0.28;0.22;;;16.40;67.00;;;;;;5032202;28;20028;-76
2020/12/25 01:25:00;;;;;;;0.68;0.30;;;16.40;67.00;;;;;;5031431;28;20379;-75
2020/12/25 01:27:30;;;;;;;0.60;0.52;;;16.40;67.00;;;;;;5013139;28;20034;-76
2020/12/25 01:30:00;;;;;;;0.43;0.30;;;16.30;67.00;;;;;;5032660;28;20029;-76
2020/12/25 01:32:36;;;;;;;0.45;0.38;;;16.30;67.00;;;;;;5013144;28;20041;-76
2020/12/25 01:35:06;;;;;;;0.43;0.30;;;16.30;67.10;;;;;;5033266;28;20025;-76
2020/12/25 01:37:44;;;;;;;0.40;0.30;;;16.30;67.10;;;;;;5030307;28;20057;-75
2020/12/25 01:40:35;;;;;;;0.73;0.30;;;16.30;67.10;;;;;;5013044;28;20022;-75
2020/12/25 01:43:05;;;;;;;0.40;0.40;;;16.30;67.10;;;;;;5019716;28;20022;-77
2020/12/25 01:45:31;;;;;;;0.40;0.40;;;16.30;67.00;;;;;;5014808;28;20037;-76
2020/12/25 01:48:00;;;;;;;0.30;0.30;;;16.30;67.00;;;;;;5013255;28;20028;-76
2020/12/25 01:50:33;;;;;;;0.60;0.38;;;16.30;67.10;;;;;;5023467;28;20025;-76
2020/12/25 01:53:04;;;;;;;0.75;0.47;;;16.40;67.10;;;;;;5006374;28;20030;-77
2020/12/25 01:55:32;;;;;;;0.32;0.32;;;16.30;67.10;;;;;;5030891;28;20029;-76
2020/12/25 01:58:11;;;;;;;0.88;0.40;;;16.40;67.10;;;;;;5026110;28;20475;-76
2020/12/25 02:00:42;;;;;;;0.57;0.30;;;16.30;67.10;;;;;;5022232;28;20065;-76
2020/12/25 02:03:07;;;;;;;0.47;0.35;;;16.40;67.10;;;;;;5049675;28;20053;-75
2020/12/25 02:05:38;;;;;;;0.38;0.38;;;16.30;67.10;;;;;;5049878;28;20411;-75
2020/12/25 02:08:04;;;;;;;0.28;0.20;;;16.30;67.10;;;;;;5052333;28;20035;-75
2020/12/25 02:10:33;;;;;;;0.43;0.35;;;16.30;67.10;;;;;;5052796;28;20033;-76
2020/12/25 02:13:04;;;;;;;0.22;0.20;;;16.30;67.10;;;;;;5050099;28;20032;-76
2020/12/25 02:15:42;;;;;;;0.30;0.20;;;16.30;67.10;;;;;;5029032;28;20036;-77
2020/12/25 02:18:08;;;;;;;0.20;0.20;;;16.30;67.10;;;;;;5029295;28;20021;-75
2020/12/25 02:20:44;;;;;;;0.65;0.40;;;16.30;67.10;;;;;;5051160;28;20395;-76
2020/12/25 02:23:10;;;;;;;0.40;0.40;;;16.30;67.10;;;;;;5044889;28;20036;-76
2020/12/25 02:25:40;;;;;;;0.20;0.20;;;16.30;67.10;;;;;;5031037;28;20033;-76
2020/12/25 02:28:13;;;;;;;0.60;0.30;;;16.30;67.10;;;;;;5045667;28;20590;-75
2020/12/25 02:30:38;;;;;;;0.20;0.20;;;16.30;67.10;;;;;;5032700;28;20108;-81
2020/12/25 02:33:09;;;;;;;0.38;0.38;;;16.30;67.10;;;;;;5046561;28;20056;-75
2020/12/25 02:35:39;;;;;;;0.63;0.38;;;16.30;67.10;;;;;;5042544;28;20108;-75
2020/12/25 02:38:17;;;;;;;0.28;0.28;;;16.30;67.10;;;;;;5045164;28;20108;-76
2020/12/25 02:40:47;;;;;;;0.30;0.30;;;16.30;67.10;;;;;;5046863;28;20025;-76
2020/12/25 02:43:17;;;;;;;0.30;0.30;;;16.30;67.10;;;;;;5029490;28;20029;-76
2020/12/25 02:46:04;;;;;;;0.50;0.40;;;16.30;67.10;;;;;;5046852;28;20033;-76
2020/12/25 02:48:32;;;;;;;0.38;0.38;;;16.30;67.10;;;;;;5030784;28;20025;-76
2020/12/25 02:51:02;;;;;;;0.52;0.30;;;16.30;67.10;;;;;;5045142;28;20033;-76
2020/12/25 02:53:33;;;;;;;0.30;0.30;;;16.30;67.10;;;;;;5029419;28;20037;-76
2020/12/25 02:55:59;;;;;;;0.30;0.30;;;16.30;67.10;;;;;;5032057;28;20068;-76
2020/12/25 02:58:24;;;;;;;0.20;0.20;;;16.30;67.10;;;;;;5033912;28;20071;-75
2020/12/25 03:00:55;;;;;;;0.55;0.50;;;16.30;67.10;;;;;;5029124;28;20048;-75
2020/12/25 03:03:25;;;;;;;0.30;0.30;;;16.30;67.10;;;;;;5023216;28;20395;-76
2020/12/25 03:05:55;;;;;;;0.30;0.30;;;16.30;67.10;;;;;;5048072;28;20390;-76
2020/12/25 03:08:25;;;;;;;0.70;0.30;;;16.30;67.10;;;;;;5023787;28;20390;-75
2020/12/25 03:10:51;;;;;;;0.85;0.40;;;16.30;67.10;;;;;;5028798;28;20187;-76
2020/12/25 03:13:17;;;;;;;0.32;0.20;;;16.30;67.10;;;;;;5029197;28;20522;-75
2020/12/25 03:15:47;;;;;;;0.32;0.30;;;16.30;67.10;;;;;;5041885;28;20104;-75
2020/12/25 03:18:27;;;;;;;0.22;0.22;;;16.30;67.10;;;;;;5051765;28;20171;-75
2020/12/25 03:20:57;;;;;;;0.70;0.40;;;16.30;67.10;;;;;;5048895;28;20029;-75
2020/12/25 03:23:28;;;;;;;0.35;0.30;;;16.30;67.00;;;;;;5040199;28;20418;-76
2020/12/25 03:25:54;;;;;;;0.50;0.35;;;16.30;67.10;;;;;;5049021;28;20029;-75
2020/12/25 03:28:24;;;;;;;0.20;0.20;;;16.30;67.10;;;;;;5049140;28;20792;-76
2020/12/25 03:30:54;;;;;;;0.43;0.40;;;16.30;67.10;;;;;;5046081;28;20152;-76
2020/12/25 03:33:27;;;;;;;0.63;0.30;;;16.30;67.10;;;;;;5034127;28;20029;-75
2020/12/25 03:36:05;;;;;;;0.50;0.30;;;16.30;67.10;;;;;;5031884;28;20115;-76
2020/12/25 03:38:34;;;;;;;0.22;0.20;;;16.30;67.10;;;;;;5039537;28;20033;-75
2020/12/25 03:41:04;;;;;;;0.40;0.22;;;16.30;67.10;;;;;;5051089;28;20063;-76
2020/12/25 03:43:30;;;;;;;0.30;0.30;;;16.30;67.10;;;;;;5041755;28;20032;-76
2020/12/25 03:45:55;;;;;;;0.30;0.30;;;16.30;67.10;;;;;;5010830;28;20042;-76
2020/12/25 03:48:24;;;;;;;0.40;0.40;;;16.30;67.20;;;;;;5045330;28;20100;-76
2020/12/25 03:51:04;;;;;;;0.40;0.40;;;16.30;67.10;;;;;;5032335;28;20117;-75
2020/12/25 03:53:30;;;;;;;0.63;0.60;;;16.30;67.20;;;;;;5048281;28;20036;-76
2020/12/25 03:55:55;;;;;;;0.30;0.25;;;16.30;67.10;;;;;;5047427;28;20037;-76
2020/12/25 03:58:21;;;;;;;0.20;0.20;;;16.30;67.20;;;;;;5051779;28;20108;-75
2020/12/25 04:00:50;;;;;;;0.20;0.20;;;16.30;67.10;;;;;;5034534;28;20122;-75
2020/12/25 04:03:18;;;;;;;0.30;0.30;;;16.30;67.20;;;;;;5048625;28;20029;-75
2020/12/25 04:05:47;;;;;;;0.40;0.30;;;16.30;67.20;;;;;;5033683;28;20102;-75
2020/12/25 04:08:17;;;;;;;0.35;0.35;;;16.30;67.20;;;;;;5029240;28;20029;-75
2020/12/25 04:10:47;;;;;;;0.45;0.45;;;16.30;67.20;;;;;;5046045;28;20071;-76
2020/12/25 04:13:13;;;;;;;0.20;0.20;;;16.30;67.20;;;;;;5032807;28;20021;-75
2020/12/25 04:15:43;;;;;;;0.80;0.35;;;16.30;67.20;;;;;;5047932;28;20039;-75
2020/12/25 04:18:14;;;;;;;0.40;0.32;;;16.30;67.20;;;;;;5048610;28;20053;-78
2020/12/25 04:20:43;;;;;;;0.40;0.40;;;16.30;67.20;;;;;;5036619;28;20082;-75
2020/12/25 04:23:14;;;;;;;0.40;0.40;;;16.30;67.20;;;;;;5050361;28;20029;-76
2020/12/25 04:25:39;;;;;;;0.50;0.30;;;16.30;67.20;;;;;;5031677;28;20029;-75
2020/12/25 04:28:10;;;;;;;0.10;0.10;;;16.30;67.20;;;;;;5047824;28;20470;-76
2020/12/25 04:30:50;;;;;;;0.55;0.30;;;16.30;67.20;;;;;;5044461;28;20036;-76
2020/12/25 04:33:15;;;;;;;0.30;0.30;;;16.30;67.20;;;;;;5046915;28;20029;-75
2020/12/25 04:35:44;;;;;;;0.20;0.20;;;16.30;67.20;;;;;;5029875;28;20120;-76
2020/12/25 04:38:09;;;;;;;;;;;16.30;67.30;;;;;;5052953;28;20033;-76
2020/12/25 04:40:42;;;;;;;0.25;0.15;;;16.30;67.20;;;;;;5054199;28;19995;-76
2020/12/25 04:43:45;;;;;;;0.28;0.28;;;16.30;67.30;;;;;;5036628;28;20465;-76
2020/12/25 04:46:18;;;;;;;0.28;0.28;;;16.20;67.20;;;;;;5049560;28;20033;-76
2020/12/25 04:48:44;;;;;;;0.30;0.30;;;16.20;67.30;;;;;;5038062;28;20029;-75
2020/12/25 04:51:12;;;;;;;0.45;0.30;;;16.20;67.30;;;;;;5032153;28;20030;-76
2020/12/25 04:53:51;;;;;;;0.35;0.35;;;16.20;67.40;;;;;;5048716;28;20071;-76
2020/12/25 04:56:28;;;;;;;0.40;0.30;;;16.20;67.30;;;;;;5037074;28;20585;-76
2020/12/25 04:58:54;;;;;;;0.38;0.38;;;16.20;67.30;;;;;;5033723;28;20398;-76
2020/12/25 05:01:32;;;;;;;0.40;0.20;;;16.30;67.30;;;;;;5007499;28;20037;-76
2020/12/25 05:04:02;;;;;;;0.30;0.30;;;16.30;67.30;;;;;;5031943;28;20479;-75
2020/12/25 05:06:34;;;;;;;0.30;0.30;;;16.20;67.30;;;;;;5033492;28;20368;-75
2020/12/25 05:09:00;;;;;;;0.20;0.20;;;16.20;67.40;;;;;;5016253;28;20105;-77
2020/12/25 05:11:31;;;;;;;0.30;0.30;;;16.20;67.40;;;;;;5010467;28;20033;-76
2020/12/25 05:14:02;;;;;;;0.20;0.17;;;16.20;67.40;;;;;;5028291;28;20157;-76
2020/12/25 05:16:36;;;;;;;0.25;0.20;;;16.20;67.40;;;;;;5010182;28;20038;-78
2020/12/25 05:19:08;;;;;;;0.28;0.28;;;16.20;67.40;;;;;;5025373;28;20033;-76
2020/12/25 05:21:39;;;;;;;0.38;0.22;;;16.20;67.40;;;;;;5026247;28;20029;-76
2020/12/25 05:24:09;;;;;;;0.47;0.20;;;16.20;67.40;;;;;;5010980;28;20476;-75
2020/12/25 05:26:47;;;;;;;0.60;0.40;;;16.20;67.40;;;;;;5028391;28;20148;-76
2020/12/25 05:29:16;;;;;;;0.20;0.20;;;16.20;67.40;;;;;;5028975;28;20025;-76
2020/12/25 05:31:47;;;;;;;0.20;0.20;;;16.20;67.40;;;;;;5032402;28;20037;-76
2020/12/25 05:34:18;;;;;;;0.20;0.20;;;16.20;67.40;;;;;;5012521;28;20056;-76
2020/12/25 05:36:54;;;;;;;0.30;0.30;;;16.20;67.40;;;;;;5032764;28;20033;-76
2020/12/25 05:39:32;;;;;;;0.30;0.30;;;16.10;67.40;;;;;;5027278;28;20391;-75
2020/12/25 05:42:05;;;;;;;0.30;0.30;;;16.20;67.50;;;;;;5025419;28;20048;-77
2020/12/25 05:44:52;;;;;;;0.20;0.20;;;16.20;67.40;;;;;;5027644;28;20025;-76
2020/12/25 05:47:18;;;;;;;0.30;0.20;;;16.20;67.50;;;;;;5028387;28;20042;-76
2020/12/25 05:49:50;;;;;;;0.32;0.32;;;16.20;67.50;;;;;;5027325;28;20099;-76
2020/12/25 05:52:15;;;;;;;0.50;0.40;;;16.20;67.40;;;;;;5011233;28;20390;-77
2020/12/25 05:54:59;;;;;;;0.30;0.20;;;16.20;67.50;;;;;;5013981;28;20026;-76
2020/12/25 05:57:32;;;;;;;0.20;0.20;;;16.20;67.50;;;;;;5012613;28;20040;-76
2020/12/25 06:00:12;;;;;;;0.57;0.30;;;16.20;67.50;;;;;;5042511;28;20108;-76
2020/12/25 06:02:43;;;;;;;0.30;0.30;;;16.20;67.50;;;;;;5024298;28;20467;-76
2020/12/25 06:05:12;;;;;;;0.60;0.40;;;16.20;67.50;;;;;;5025977;28;20026;-76
2020/12/25 06:07:52;;;;;;;0.25;0.25;;;16.20;67.50;;;;;;5011631;28;20388;-76
2020/12/25 06:10:24;;;;;;;0.40;0.20;;;16.10;67.50;;;;;;5019898;28;20032;-75
2020/12/25 06:12:54;;;;;;;0.45;0.38;;;16.10;67.50;;;;;;5013680;28;20061;-76
2020/12/25 06:15:33;;;;;;;0.40;0.30;;;16.10;67.50;;;;;;5026004;28;20113;-75
2020/12/25 06:18:53;;;;;;;0.30;0.28;;;16.10;67.50;;;;;;5029234;28;20033;-76
2020/12/25 06:21:49;;;;;;;1.08;0.30;;;16.10;67.60;;;;;;4982506;28;20041;-76
2020/12/25 06:24:25;;;;;;;0.20;0.20;;;16.10;67.60;;;;;;5002822;28;20068;-76
2020/12/25 06:27:00;;;;;;;0.40;0.40;;;16.20;67.60;;;;;;5025065;28;20076;-76
2020/12/25 06:29:31;;;;;;;0.20;0.20;;;16.10;67.60;;;;;;5027845;28;20053;-75
2020/12/25 06:32:04;;;;;;;0.22;0.22;;;16.10;67.60;;;;;;5023410;28;20482;-77
2020/12/25 06:34:50;;;;;;;0.20;0.10;;;16.10;67.60;;;;;;5022333;28;20540;-75
2020/12/25 06:37:17;;;;;;;0.50;0.30;;;16.10;67.60;;;;;;5013900;28;20131;-76
2020/12/25 06:39:54;;;;;;;0.30;0.30;;;16.10;67.60;;;;;;5026135;28;20033;-76
2020/12/25 06:42:32;;;;;;;0.20;0.20;;;16.10;67.60;;;;;;5031761;28;20088;-75
2020/12/25 06:45:10;;;;;;;0.50;0.30;;;16.10;67.60;;;;;;5030924;28;20030;-76
2020/12/25 06:47:44;;;;;;;1.10;0.50;;;16.10;67.60;;;;;;5041087;28;20029;-76
2020/12/25 06:50:14;;;;;;;0.40;0.30;;;16.10;67.60;;;;;;5024682;28;20101;-76
2020/12/25 06:53:00;;;;;;;0.20;0.20;;;16.10;67.60;;;;;;5032275;28;20105;-75
2020/12/25 06:55:51;;;;;;;0.20;0.20;;;16.10;67.60;;;;;;5037305;28;20030;-76
2020/12/25 06:58:24;;;;;;;0.30;0.30;;;16.10;67.60;;;;;;5027325;28;20061;-75
2020/12/25 07:00:56;;;;;;;0.43;0.40;;;16.10;67.60;;;;;;5031338;28;20084;-75
2020/12/25 07:03:40;;;;;;;0.70;0.30;;;16.10;67.60;;;;;;5009047;28;20537;-77
2020/12/25 07:06:10;;;;;;;0.50;0.30;;;16.10;67.60;;;;;;5025932;28;20125;-76
2020/12/25 07:08:57;;;;;;;0.63;0.30;;;16.10;67.60;;;;;;5021983;28;20036;-75
2020/12/25 07:11:23;;;;;;;0.30;0.30;;;16.10;67.60;;;;;;5020681;28;20029;-78
2020/12/25 07:13:53;;;;;;;0.57;0.38;;;16.10;67.60;;;;;;5030143;28;20523;-75
2020/12/25 07:16:19;;;;;;;0.57;0.40;;;16.10;67.60;;;;;;5027746;28;20040;-76
2020/12/25 07:18:50;;;;;;;0.50;0.15;;;16.10;67.70;;;;;;5027217;28;20129;-76
2020/12/25 07:21:19;;;;;;;0.28;0.20;;;16.10;67.60;;;;;;5031872;28;20053;-75
2020/12/25 07:23:57;;;;;;;0.30;0.30;;;16.10;67.70;;;;;;5030724;28;20041;-76
2020/12/25 07:26:28;;;;;;;0.25;0.25;;;16.10;67.70;;;;;;5023647;28;20077;-76
2020/12/25 07:28:56;;;;;;;0.20;0.20;;;16.10;67.60;;;;;;5025023;28;20384;-76
2020/12/25 07:31:24;;;;;;;0.45;0.32;;;16.10;67.60;;;;;;5012431;28;20481;-75
2020/12/25 07:33:57;;;;;;;0.20;0.20;;;16.10;67.70;;;;;;5016404;28;20356;-75
2020/12/25 07:36:24;;;;;;;0.28;0.20;;;16.10;67.60;;;;;;5032263;28;20120;-79
2020/12/25 07:39:12;;;;;;;0.30;0.30;;;16.10;67.70;;;;;;5033024;28;20130;-75
2020/12/25 07:41:42;;;;;;;0.35;0.35;;;16.10;67.70;;;;;;5010919;28;20053;-75
2020/12/25 07:44:12;;;;;;;0.20;0.20;;;16.10;67.60;;;;;;5011312;28;20104;-76
2020/12/25 07:46:42;;;;;;;0.25;0.25;;;16.10;67.60;;;;;;5025774;28;20033;-76
2020/12/25 07:49:13;;;;;;;0.20;0.20;;;16.10;67.60;;;;;;5028752;28;20044;-77
2020/12/25 07:51:46;;;;;;;0.30;0.30;;;16.10;67.60;;;;;;5010596;28;20030;-76
2020/12/25 07:54:14;;;;;;;0.20;0.20;;;16.00;67.60;;;;;;5015664;28;20032;-76
2020/12/25 07:56:45;;;;;;;0.52;0.20;;;16.10;67.60;;;;;;5031001;28;20424;-75
2020/12/25 07:59:11;;;;;;;0.30;0.30;;;16.10;67.60;;;;;;5033276;28;20046;-77
2020/12/25 08:01:41;;;;;;;0.30;0.30;;;16.10;67.60;;;;;;5011057;28;20043;-75
2020/12/25 08:04:12;;;;;;;0.30;0.30;;;16.10;67.60;;;;;;5029992;28;20383;-75
2020/12/25 08:06:46;;;;;;;0.20;0.20;;;16.10;67.60;;;;;;5016419;28;20042;-76
2020/12/25 08:09:14;;;;;;;0.28;0.28;;;16.10;67.60;;;;;;5031526;28;20538;-76
2020/12/25 08:11:41;;;;;;;0.85;0.20;;;16.10;67.60;;;;;;5034208;28;20501;-76
2020/12/25 08:14:10;;;;;;;0.28;0.20;;;16.10;67.60;;;;;;5029512;28;20113;-75
2020/12/25 08:16:53;;;;;;;0.20;0.20;;;16.10;67.60;;;;;;5007627;28;20033;-76
2020/12/25 08:19:24;;;;;;;0.10;0.10;;;16.10;67.60;;;;;;5009770;28;20030;-75
2020/12/25 08:21:54;;;;;;;0.30;0.30;;;16.10;67.60;;;;;;5027738;28;20033;-76
2020/12/25 08:24:25;;;;;;;0.32;0.32;;;16.10;67.50;;;;;;5013698;28;20030;-75
2020/12/25 08:26:58;;;;;;;0.38;0.30;;;16.10;67.60;;;;;;5034362;28;20497;-76
2020/12/25 08:29:26;;;;;;;0.20;0.20;;;16.10;67.50;;;;;;5010760;28;20067;-75
2020/12/25 08:31:54;;;;;;;;;;;16.10;67.50;;;;;;5032908;28;20033;-76
2020/12/25 08:34:25;;;;;;;;;;;16.10;67.50;;;;;;5018650;28;19909;-75
2020/12/25 08:36:59;;;;;;;0.40;0.40;;;16.10;67.50;;;;;;5031772;28;19912;-76
2020/12/25 08:39:32;;;;;;;0.30;0.30;;;16.10;67.50;;;;;;5024710;28;20105;-76
2020/12/25 08:41:58;;;;;;;0.20;0.20;;;16.10;67.50;;;;;;5034613;28;20463;-75
2020/12/25 08:44:24;;;;;;;0.25;0.20;;;16.10;67.50;;;;;;5014414;28;20076;-75
2020/12/25 08:46:51;;;;;;;0.17;0.17;;;16.10;67.50;;;;;;5032425;28;20060;-75
2020/12/25 08:49:31;;;;;;;0.20;0.20;;;16.10;67.50;;;;;;5016756;28;20084;-76
2020/12/25 08:51:56;;;;;;;0.30;0.30;;;16.10;67.40;;;;;;5016801;28;20391;-75
2020/12/25 08:54:33;;;;;;;0.20;0.20;;;16.10;67.40;;;;;;5011957;28;20029;-77
2020/12/25 08:56:58;;;;;;;0.15;0.15;;;16.10;67.40;;;;;;5027964;28;20585;-76
2020/12/25 08:59:38;;;;;;;1.17;0.82;;;16.10;67.40;;;;;;5025459;28;20130;-76
2020/12/25 09:02:16;;;;;;;0.25;0.22;;;16.10;67.40;;;;;;5025663;28;20025;-75
2020/12/25 09:04:49;;;;;;;0.30;0.30;;;16.20;67.40;;;;;;5029290;28;20026;-75
2020/12/25 09:07:19;;;;;;;0.30;0.30;;;16.10;67.30;;;;;;5027951;28;20488;-75
2020/12/25 09:09:45;;;;;;;0.30;0.20;;;16.10;67.40;;;;;;5032481;28;20080;-76
2020/12/25 09:12:24;;;;;;;0.15;0.15;;;16.10;67.30;;;;;;5032815;28;20029;-76
2020/12/25 09:14:54;;;;;;;0.20;0.20;;;16.10;67.30;;;;;;5014928;28;20026;-75
2020/12/25 09:17:21;;;;;;;0.32;0.32;;;16.10;67.30;;;;;;5028794;28;20087;-75
2020/12/25 09:19:51;;;;;;;0.30;0.30;;;16.10;67.30;;;;;;5029802;28;20018;-75
2020/12/25 09:22:21;;;;;;;0.30;0.30;;;16.10;67.30;;;;;;5012903;28;20459;-75
2020/12/25 09:24:52;;;;;;;0.25;0.25;;;16.20;67.30;;;;;;5013739;28;20029;-75
2020/12/25 09:27:21;;;;;;;0.30;0.20;;;16.10;67.30;;;;;;5028052;28;20045;-76
2020/12/25 09:29:51;;;;;;;0.28;0.20;;;16.10;67.30;;;;;;5013644;28;20113;-75
2020/12/25 09:32:16;;;;;;;0.10;0.10;;;16.10;67.30;;;;;;5028990;28;20035;-76
2020/12/25 09:34:45;;;;;;;0.15;0.15;;;16.20;67.20;;;;;;5026284;28;20021;-76
2020/12/25 09:37:11;;;;;;;0.20;0.20;;;16.20;67.20;;;;;;5032741;28;20593;-75
2020/12/25 09:39:41;;;;;;;0.20;0.20;;;16.20;67.20;;;;;;5028557;28;20104;-76
2020/12/25 09:42:11;;;;;;;0.10;0.10;;;16.20;67.10;;;;;;5031816;28;20084;-76
2020/12/25 09:44:41;;;;;;;0.28;0.10;;;16.20;67.10;;;;;;5014568;28;20022;-75
2020/12/25 09:47:11;;;;;;;0.20;0.15;;;16.20;67.10;;;;;;5017957;28;20049;-76
2020/12/25 09:49:42;;;;;;;0.30;0.30;;;16.20;67.10;;;;;;5009191;28;20029;-76
2020/12/25 09:52:12;;;;;;;0.25;0.25;;;16.20;67.20;;;;;;5027974;28;20021;-75
2020/12/25 09:54:43;;;;;;;0.40;0.30;;;16.20;67.10;;;;;;5013396;28;20021;-75
2020/12/25 09:57:08;;;;;;;0.20;0.20;;;16.20;67.10;;;;;;5007872;28;20100;-75
2020/12/25 09:59:38;;;;;;;0.20;0.20;;;16.20;67.20;;;;;;5028145;28;20049;-76
2020/12/25 10:02:04;;;;;;;0.20;0.20;;;16.20;67.10;;;;;;5015107;28;20091;-76
2020/12/25 10:04:30;;;;;;;0.20;0.20;;;16.20;67.10;;;;;;5033264;28;20026;-77
2020/12/25 10:06:56;;;;;;;0.20;0.20;;;16.20;67.00;;;;;;5028359;28;20120;-76
2020/12/25 10:09:27;;;;;;;0.30;0.30;;;16.20;67.00;;;;;;5023910;28;20465;-76
2020/12/25 10:11:57;;;;;;;0.20;0.20;;;16.20;67.00;;;;;;5026673;28;20025;-75
2020/12/25 10:14:27;;;;;;;0.30;0.30;;;16.20;66.90;;;;;;5032011;28;20100;-75
2020/12/25 10:16:58;;;;;;;0.10;0.10;;;16.20;66.90;;;;;;5012138;28;20034;-75
2020/12/25 10:19:28;;;;;;;0.13;0.13;;;16.20;66.90;;;;;;5014674;28;20071;-76
2020/12/25 10:21:58;;;;;;;0.20;0.20;;;16.20;66.90;;;;;;5032554;28;20037;-75
2020/12/25 10:24:27;;;;;;;0.20;0.20;;;16.20;66.90;;;;;;5026072;28;20060;-76
2020/12/25 10:26:57;;;;;;;0.20;0.20;;;16.20;66.90;;;;;;5007397;28;20037;-76
2020/12/25 10:29:23;;;;;;;0.28;0.28;;;16.30;66.90;;;;;;5026727;28;20042;-75
2020/12/25 10:31:54;;;;;;;0.20;0.20;;;16.20;66.90;;;;;;5011983;28;20032;-75
2020/12/25 10:34:20;;;;;;;0.35;0.30;;;16.20;67.00;;;;;;5028394;28;20025;-75
2020/12/25 10:36:50;;;;;;;0.10;0.10;;;16.20;67.00;;;;;;5005105;28;20034;-76
2020/12/25 10:39:21;;;;;;;0.10;0.10;;;16.20;67.00;;;;;;5013109;28;20025;-76
2020/12/25 10:41:46;;;;;;;0.20;0.20;;;16.20;67.10;;;;;;5025869;28;20029;-75
2020/12/25 10:44:12;;;;;;;0.20;0.20;;;16.20;67.10;;;;;;5011209;28;20030;-76
2020/12/25 10:46:38;;;;;;;0.40;0.30;;;16.10;67.10;;;;;;5011234;28;20057;-76
2020/12/25 10:49:09;;;;;;;0.20;0.20;;;16.10;67.10;;;;;;5013415;28;20390;-76
2020/12/25 10:51:35;;;;;;;0.30;0.25;;;16.10;67.10;;;;;;5020267;28;20037;-76
2020/12/25 10:54:06;;;;;;;0.17;0.17;;;16.10;67.10;;;;;;5006917;28;20368;-75
2020/12/25 10:56:44;;;;;;;0.10;0.10;;;16.10;67.00;;;;;;5022878;28;20488;-75
2020/12/25 10:59:18;;;;;;;0.20;0.20;;;16.10;67.10;;;;;;5008431;28;20060;-76
2020/12/25 11:01:49;;;;;;;0.20;0.20;;;16.10;67.10;;;;;;5014442;28;20041;-75
2020/12/25 11:04:16;;;;;;;0.30;0.30;;;16.10;67.10;;;;;;5027407;28;20533;-75
2020/12/25 11:06:48;;;;;;;0.10;0.10;;;16.10;67.10;;;;;;5026415;28;20046;-75
2020/12/25 11:09:17;;;;;;;0.10;0.10;;;16.10;67.20;;;;;;5030273;28;20426;-76
2020/12/25 11:11:47;;;;;;;0.10;0.10;;;16.10;67.20;;;;;;5030783;28;20048;-75
2020/12/25 11:14:19;;;;;;;0.20;0.20;;;16.10;67.20;;;;;;5024224;28;20108;-76
2020/12/25 11:16:44;;;;;;;0.20;0.20;;;16.10;67.20;;;;;;5023983;28;20046;-75
2020/12/25 11:19:16;;;;;;;0.20;0.20;;;16.10;67.20;;;;;;5029779;28;20022;-76
2020/12/25 11:21:55;;;;;;;0.20;0.20;;;16.10;67.20;;;;;;5025632;28;20132;-75
2020/12/25 11:24:28;;;;;;;0.10;0.10;;;16.10;67.20;;;;;;5029505;28;20364;-75
2020/12/25 11:26:58;;;;;;;0.25;0.25;;;16.10;67.20;;;;;;5006985;28;20036;-76
2020/12/25 11:29:23;;;;;;;0.20;0.20;;;16.10;67.20;;;;;;5031400;28;20022;-75
2020/12/25 11:31:49;;;;;;;0.38;0.20;;;16.10;67.20;;;;;;5027942;28;20030;-76
2020/12/25 11:34:15;;;;;;;0.38;0.32;;;16.10;67.10;;;;;;5024222;28;20061;-75
2020/12/25 11:36:45;;;;;;;0.28;0.20;;;16.10;67.10;;;;;;5030829;28;20033;-76
2020/12/25 11:39:16;;;;;;;0.10;0.10;;;16.10;67.10;;;;;;5024652;28;20025;-75
2020/12/25 11:41:42;;;;;;;0.17;0.17;;;16.10;67.00;;;;;;5022614;28;20037;-75
2020/12/25 11:44:13;;;;;;;0.38;0.30;;;16.10;67.00;;;;;;5027130;28;20025;-75
2020/12/25 11:46:43;;;;;;;0.30;0.30;;;16.10;67.00;;;;;;5026094;28;20467;-75
2020/12/25 11:49:38;;;;;;;0.28;0.28;;;16.10;67.00;;;;;;5030931;28;20026;-76
2020/12/25 11:52:04;;;;;;;0.13;0.13;;;16.10;67.00;;;;;;5011075;28;20490;-76
2020/12/25 11:54:29;;;;;;;0.20;0.20;;;16.20;67.00;;;;;;5023796;28;20038;-76
2020/12/25 11:56:55;;;;;;;0.20;0.20;;;16.10;67.00;;;;;;5017902;28;20034;-75
2020/12/25 11:59:21;;;;;;;0.40;0.30;;;16.10;67.00;;;;;;5007841;28;20140;-76
2020/12/25 12:01:47;;;;;;;0.35;0.15;;;16.10;67.00;;;;;;5008778;28;20026;-75
2020/12/25 12:04:13;;;;;;;0.10;0.10;;;16.10;67.00;;;;;;5013020;28;20029;-75
2020/12/25 12:06:43;;;;;;;0.15;0.15;;;16.10;67.10;;;;;;5011399;28;20088;-75
2020/12/25 12:09:13;;;;;;;0.10;0.10;;;16.10;67.10;;;;;;5034346;28;20025;-75
2020/12/25 12:11:47;;;;;;;0.20;0.20;;;16.10;67.10;;;;;;5034425;28;20437;-75
2020/12/25 12:14:25;;;;;;;0.40;0.40;;;16.10;67.10;;;;;;5016595;28;20513;-75
2020/12/25 12:16:56;;;;;;;0.10;0.10;;;16.10;67.10;;;;;;5028978;28;20490;-75
2020/12/25 12:19:27;;;;;;;0.10;0.10;;;16.10;67.10;;;;;;5033461;28;20108;-75
2020/12/25 12:22:00;;;;;;;0.10;0.10;;;16.00;67.20;;;;;;5013481;28;20125;-76
2020/12/25 12:24:30;;;;;;;0.28;0.28;;;16.10;67.20;;;;;;5025615;28;20040;-76
2020/12/25 12:27:04;;;;;;;0.47;0.30;;;16.10;67.20;;;;;;5015160;28;20056;-76
2020/12/25 12:29:51;;;;;;;0.30;0.30;;;16.00;67.20;;;;;;5025950;28;20060;-75
2020/12/25 12:32:19;;;;;;;0.38;0.35;;;16.10;67.20;;;;;;5030038;28;20023;-75
2020/12/25 12:34:48;;;;;;;0.20;0.20;;;16.00;67.20;;;;;;5032595;28;20030;-76
2020/12/25 12:37:14;;;;;;;0.10;0.10;;;16.10;67.20;;;;;;5011192;28;20052;-75
2020/12/25 12:39:45;;;;;;;0.15;0.15;;;16.00;67.20;;;;;;5028267;28;20459;-75
2020/12/25 12:42:16;;;;;;;0.10;0.10;;;16.00;67.20;;;;;;5012818;28;20034;-76
2020/12/25 12:44:47;;;;;;;0.20;0.20;;;16.00;67.20;;;;;;5030511;28;20108;-75
2020/12/25 12:47:12;;;;;;;0.10;0.10;;;16.10;67.20;;;;;;5027187;28;20034;-76
2020/12/25 12:49:51;;;;;;;0.22;0.20;;;16.10;67.20;;;;;;5033352;28;20530;-75
2020/12/25 12:52:20;;;;;;;0.22;0.22;;;16.10;67.20;;;;;;5030160;28;20037;-75
2020/12/25 12:54:50;;;;;;;0.10;0.10;;;16.00;67.20;;;;;;5016797;28;20025;-75
2020/12/25 12:57:26;;;;;;;0.35;0.20;;;16.10;67.20;;;;;;5031322;28;20079;-76
2020/12/25 13:00:05;;;;;;;0.20;0.20;;;16.00;67.20;;;;;;5021924;28;20045;-75
2020/12/25 13:02:43;;;;;;;0.20;0.20;;;16.00;67.30;;;;;;5033276;28;20033;-75
2020/12/25 13:05:13;;;;;;;0.17;0.15;;;16.10;67.30;;;;;;5025895;28;20364;-76
2020/12/25 13:07:39;;;;;;;0.52;0.40;;;16.00;67.20;;;;;;5031708;28;20049;-76